KDLP

West Delta 27A Airport

West Delta, Mississippi, USA
METAR KDLP 212135Z AUTO 23009KT 10SM CLR 32/23 A2992 RMK A01
Observed Flight Rules
Jun-21 @ 21:35 UTC (32 minutes ago) Visual Flight Rules
Wind Visibility Clouds
230° at 9 knots 10 miles
  • Clear skies
Temperatures Readings
Current 32°C / 90°F
Dewpoint 23°C / 73°F
Humidity 59%
Altimeter 29.92" Hg
Pressure 1013 hPa
Elevation 36
METAR KDLP 212135Z AUTO 23009KT 10SM CLR 32/23 A2992 RMK A01
Observed Flight Rules
Jun-21 @ 21:35 UTC
(32 minutes ago)
VFR
Wind Visibility
230° at 9 knots 10 miles
Clouds
  • Clear skies
Temperature Dewpoint
32°C / 90°F 23°C / 73°F
Humidity Altimeter Pressure
59% 29.92" Hg 1013 hPa